地図

経路データ

SID SEASON NUMBER BASIN SUBBASIN NAME ISO_TIME NATURE LAT LON WMO_WIND WMO_PRES WMO_AGENCY TRACK_TYPE DIST2LAND LANDFALL IFLAG USA_AGENCY USA_ATCF_ID USA_LAT USA_LON USA_RECORD USA_STATUS USA_WIND USA_PRES USA_SSHS USA_R34_NE USA_R34_SE USA_R34_SW USA_R34_NW USA_R50_NE USA_R50_SE USA_R50_SW USA_R50_NW USA_R64_NE USA_R64_SE USA_R64_SW USA_R64_NW USA_POCI USA_ROCI USA_RMW USA_EYE TOKYO_LAT TOKYO_LON TOKYO_GRADE TOKYO_WIND TOKYO_PRES TOKYO_R50_DIR TOKYO_R50_LONG TOKYO_R50_SHORT TOKYO_R30_DIR TOKYO_R30_LONG TOKYO_R30_SHORT TOKYO_LAND CMA_LAT CMA_LON CMA_CAT CMA_WIND CMA_PRES HKO_LAT HKO_LON HKO_CAT HKO_WIND HKO_PRES NEWDELHI_LAT NEWDELHI_LON NEWDELHI_GRADE NEWDELHI_WIND NEWDELHI_PRES NEWDELHI_CI NEWDELHI_DP NEWDELHI_POCI REUNION_LAT REUNION_LON REUNION_TYPE REUNION_WIND REUNION_PRES REUNION_TNUM REUNION_CI REUNION_RMW REUNION_R34_NE REUNION_R34_SE REUNION_R34_SW REUNION_R34_NW REUNION_R50_NE REUNION_R50_SE REUNION_R50_SW REUNION_R50_NW REUNION_R64_NE REUNION_R64_SE REUNION_R64_SW REUNION_R64_NW BOM_LAT BOM_LON BOM_TYPE BOM_WIND BOM_PRES BOM_TNUM BOM_CI BOM_RMW BOM_R34_NE BOM_R34_SE BOM_R34_SW BOM_R34_NW BOM_R50_NE BOM_R50_SE BOM_R50_SW BOM_R50_NW BOM_R64_NE BOM_R64_SE BOM_R64_SW BOM_R64_NW BOM_ROCI BOM_POCI BOM_EYE BOM_POS_METHOD BOM_PRES_METHOD NADI_LAT NADI_LON NADI_CAT NADI_WIND NADI_PRES WELLINGTON_LAT WELLINGTON_LON WELLINGTON_WIND WELLINGTON_PRES DS824_LAT DS824_LON DS824_STAGE DS824_WIND DS824_PRES TD9636_LAT TD9636_LON TD9636_STAGE TD9636_WIND TD9636_PRES TD9635_LAT TD9635_LON TD9635_WIND TD9635_PRES TD9635_ROCI NEUMANN_LAT NEUMANN_LON NEUMANN_CLASS NEUMANN_WIND NEUMANN_PRES MLC_LAT MLC_LON MLC_CLASS MLC_WIND MLC_PRES USA_GUST BOM_GUST BOM_GUST_PER REUNION_GUST REUNION_GUST_PER USA_SEAHGT USA_SEARAD_NE USA_SEARAD_SE USA_SEARAD_SW USA_SEARAD_NW STORM_SPEED STORM_DIR
1854253N14303 1854 9 NA NA NOT_NAMED 1854-09-09 12:00:00 TS 14.0000 -57.5000 main 530 501 _____________O -1 14.0000 -57.5000 TD 30 11 287
1854253N14303 1854 9 NA NA NOT_NAMED 1854-09-09 15:00:00 TS 14.1603 -58.0498 main 509 480 _____________P -1 14.1603 -58.0498 TD 30 11 286
1854253N14303 1854 9 NA NA NOT_NAMED 1854-09-09 18:00:00 TS 14.3000 -58.6000 main 480 462 _____________O -1 14.3000 -58.6000 TD 30 11 283
1854253N14303 1854 9 NA NA NOT_NAMED 1854-09-09 21:00:00 TS 14.4074 -59.1501 main 458 448 _____________P -1 14.4074 -59.1501 TD 30 11 281
1854253N14303 1854 9 NA CS NOT_NAMED 1854-09-10 00:00:00 TS 14.5000 -59.7000 main 448 439 _____________O -1 14.5000 -59.7000 TD 30 11 280
1854253N14303 1854 9 NA CS NOT_NAMED 1854-09-10 03:00:00 TS 14.5999 -60.2575 main 443 440 _____________P -1 14.5999 -60.2575 TD 32 11 281
1854253N14303 1854 9 NA CS NOT_NAMED 1854-09-10 06:00:00 TS 14.7000 -60.8000 main 448 447 _____________O -1 14.7000 -60.8000 TS 35 10 281
1854253N14303 1854 9 NA CS NOT_NAMED 1854-09-10 09:00:00 TS 14.7999 -61.3150 main 459 459 _____________P -1 14.7999 -61.3150 TS 35 10 282
1854253N14303 1854 9 NA CS NOT_NAMED 1854-09-10 12:00:00 TS 14.9000 -61.8000 main 470 470 _____________O -1 14.9000 -61.8000 TS 35 9 282
1854253N14303 1854 9 NA CS NOT_NAMED 1854-09-10 15:00:00 TS 14.9999 -62.2575 main 481 463 _____________P -1 14.9999 -62.2575 TS 37 9 283
1854253N14303 1854 9 NA CS NOT_NAMED 1854-09-10 18:00:00 TS 15.1000 -62.7000 main 463 425 _____________O -1 15.1000 -62.7000 TS 40 9 283
1854253N14303 1854 9 NA CS NOT_NAMED 1854-09-10 21:00:00 TS 15.1999 -63.1426 main 425 382 _____________P -1 15.1999 -63.1426 TS 40 9 283
1854253N14303 1854 9 NA CS NOT_NAMED 1854-09-11 00:00:00 TS 15.3000 -63.6000 main 382 342 _____________O -1 15.3000 -63.6000 TS 40 9 283
1854253N14303 1854 9 NA CS NOT_NAMED 1854-09-11 03:00:00 TS 15.4075 -64.1000 main 342 307 _____________P -1 15.4075 -64.1000 TS 40 10 282
1854253N14303 1854 9 NA CS NOT_NAMED 1854-09-11 06:00:00 TS 15.5000 -64.6000 main 307 292 _____________O -1 15.5000 -64.6000 TS 40 9 278
1854253N14303 1854 9 NA CS NOT_NAMED 1854-09-11 09:00:00 TS 15.5349 -65.0577 main 289 267 _____________P -1 15.5349 -65.0577 TS 40 9 277
1854253N14303 1854 9 NA CS NOT_NAMED 1854-09-11 12:00:00 TS 15.6000 -65.5000 main 267 237 _____________O -1 15.6000 -65.5000 TS 40 9 286
1854253N14303 1854 9 NA CS NOT_NAMED 1854-09-11 15:00:00 TS 15.7849 -65.9499 main 237 212 _____________P -1 15.7849 -65.9499 TS 42 10 295
1854253N14303 1854 9 NA CS NOT_NAMED 1854-09-11 18:00:00 TS 16.0000 -66.4000 main 213 201 _____________O -1 16.0000 -66.4000 TS 45 9 293
1854253N14303 1854 9 NA CS NOT_NAMED 1854-09-11 21:00:00 TS 16.1499 -66.8502 main 201 179 _____________P -1 16.1499 -66.8502 TS 45 9 289
1854253N14303 1854 9 NA CS NOT_NAMED 1854-09-12 00:00:00 TS 16.3000 -67.3000 main 179 165 _____________O -1 16.3000 -67.3000 TS 45 9 292
1854253N14303 1854 9 NA CS NOT_NAMED 1854-09-12 03:00:00 TS 16.5000 -67.7575 main 169 163 _____________P -1 16.5000 -67.7575 TS 45 10 295
1854253N14303 1854 9 NA CS NOT_NAMED 1854-09-12 06:00:00 TS 16.7000 -68.2000 main 171 145 _____________O -1 16.7000 -68.2000 TS 45 9 294
1854253N14303 1854 9 NA CS NOT_NAMED 1854-09-12 09:00:00 TS 16.8648 -68.6001 main 145 134 _____________P -1 16.8648 -68.6001 TS 45 8 291
1854253N14303 1854 9 NA CS NOT_NAMED 1854-09-12 12:00:00 TS 17.0000 -69.0000 main 135 130 _____________O -1 17.0000 -69.0000 TS 45 8 287
1854253N14303 1854 9 NA CS NOT_NAMED 1854-09-12 15:00:00 TS 17.1149 -69.4425 main 138 116 _____________P -1 17.1149 -69.4425 TS 45 9 283
1854253N14303 1854 9 NA CS NOT_NAMED 1854-09-12 18:00:00 TS 17.2000 -69.9000 main 116 100 _____________O -1 17.2000 -69.9000 TS 45 9 279
1854253N14303 1854 9 NA CS NOT_NAMED 1854-09-12 21:00:00 TS 17.2574 -70.3501 main 100 71 _____________P -1 17.2574 -70.3501 TS 45 9 277
1854253N14303 1854 9 NA CS NOT_NAMED 1854-09-13 00:00:00 TS 17.3000 -70.8000 main 71 39 _____________O -1 17.3000 -70.8000 TS 45 9 276
1854253N14303 1854 9 NA CS NOT_NAMED 1854-09-13 03:00:00 TS 17.3499 -71.2575 main 35 22 _____________P -1 17.3499 -71.2575 TS 45 9 277
1854253N14303 1854 9 NA CS NOT_NAMED 1854-09-13 06:00:00 TS 17.4000 -71.7000 main 38 38 _____________O -1 17.4000 -71.7000 TS 45 8 275
1854253N14303 1854 9 NA CS NOT_NAMED 1854-09-13 09:00:00 TS 17.4275 -72.1226 main 69 69 _____________P -1 17.4275 -72.1226 TS 42 8 277
1854253N14303 1854 9 NA CS NOT_NAMED 1854-09-13 12:00:00 TS 17.5000 -72.5000 main 74 44 _____________O -1 17.5000 -72.5000 TS 40 7 291
1854253N14303 1854 9 NA CS NOT_NAMED 1854-09-13 15:00:00 TS 17.6774 -72.8150 main 44 30 _____________P -1 17.6774 -72.8150 TS 40 7 305
1854253N14303 1854 9 NA CS NOT_NAMED 1854-09-13 18:00:00 TS 17.9000 -73.1000 main 33 11 _____________O -1 17.9000 -73.1000 TS 40 7 307
1854253N14303 1854 9 NA CS NOT_NAMED 1854-09-13 21:00:00 TS 18.0925 -73.4001 main 11 0 _____________P -1 18.0925 -73.4001 TS 40 7 305
1854253N14303 1854 9 NA NA NOT_NAMED 1854-09-14 00:00:00 TS 18.3000 -73.7000 main 0 0 _____________O -1 18.3000 -73.7000 TS 40 7 308
1854253N14303 1854 9 NA NA NOT_NAMED 1854-09-14 03:00:00 TS 18.5425 -74.0075 main 0 0 _____________P -1 18.5425 -74.0075 TS 37 8 311
1854253N14303 1854 9 NA CS NOT_NAMED 1854-09-14 06:00:00 TS 18.8000 -74.3000 main 22 22 _____________O -1 18.8000 -74.3000 TS 35 8 311
1854253N14303 1854 9 NA CS NOT_NAMED 1854-09-14 09:00:00 TS 19.0500 -74.6323 main 59 59 _____________P -1 19.0500 -74.6323 TS 35 7 317
1854253N14303 1854 9 NA CS NOT_NAMED 1854-09-14 12:00:00 TS 19.3000 -74.8000 main 70 54 _____________O -1 19.3000 -74.8000 TS 35 5 5
1854253N14303 1854 9 NA CS NOT_NAMED 1854-09-14 15:00:00 TS 19.5577 -74.5880 main 49 33 _____________P -1 19.5577 -74.5880 TS 35 7 43
1854253N14303 1854 9 NA CS NOT_NAMED 1854-09-14 18:00:00 TS 19.8000 -74.3000 main 33 11 _____________O -1 19.8000 -74.3000 TS 35 6 34
1854253N14303 1854 9 NA CS NOT_NAMED 1854-09-14 21:00:00 TS 20.0149 -74.2623 main 11 0 _____________P -1 20.0149 -74.2623 TS 32 4 0
1854253N14303 1854 9 NA NA NOT_NAMED 1854-09-15 00:00:00 TS 20.2000 -74.3000 main 0 0 _____________O -1 20.2000 -74.3000 TD 30 4 355
1854253N14303 1854 9 NA NA NOT_NAMED 1854-09-15 03:00:00 TS 20.3650 -74.3000 main 15 15 _____________P -1 20.3650 -74.3000 TD 30 3 0
1854253N14303 1854 9 NA NA NOT_NAMED 1854-09-15 06:00:00 TS 20.5000 -74.3000 main 23 23 _____________O -1 20.5000 -74.3000 TD 30 2 6
1854253N14303 1854 9 NA NA NOT_NAMED 1854-09-15 09:00:00 TS 20.6075 -74.3000 main 30 30 _____________P -1 20.6075 -74.3000 TD 25 2 8
1854253N14303 1854 9 NA NA NOT_NAMED 1854-09-15 12:00:00 ET 20.7000 -74.3000 main 38 _____________O -1 20.7000 -74.3000 EX 20 2 0

IBTrACS Databaseについて

本データベースは、米国NOAAが公開する1842年以降の世界の熱帯低気圧のベストトラックデータアーカイブInternational Best Track Archive for Climate Stewardship (IBTrACS)を、ウェブで閲覧しやすい形式に変換したものです。

最終更新日:2021-12-03